createdAt,value
2022-11-25T00:01:29.848Z,100858.72
2022-11-25T00:03:58.076Z,100854.56
2022-11-25T00:06:44.225Z,100869.59
2022-11-25T00:09:13.188Z,100873.53
2022-11-25T00:11:42.575Z,100862.31
2022-11-25T00:14:14.976Z,100888.16
2022-11-25T00:16:46.710Z,100889.47
2022-11-25T00:19:15.751Z,100900.13
2022-11-25T00:21:42.758Z,100904.91
2022-11-25T00:24:10.813Z,100909.44
2022-11-25T00:26:37.678Z,100928.53
2022-11-25T00:29:06.348Z,100928.78
2022-11-25T00:31:36.237Z,100931.03
2022-11-25T00:34:03.866Z,100937.50
2022-11-25T00:36:33.382Z,100939.19
2022-11-25T00:39:03.790Z,100944.25
2022-11-25T00:41:49.213Z,100948.78
2022-11-25T00:44:37.477Z,100934.81
2022-11-25T00:47:13.175Z,100947.13
2022-11-25T00:49:42.172Z,100952.41
2022-11-25T00:52:12.666Z,100953.81
2022-11-25T00:54:39.418Z,100962.78
2022-11-25T00:57:06.447Z,100966.13
2022-11-25T00:59:33.130Z,100963.88
2022-11-25T01:02:00.354Z,100962.25
2022-11-25T01:04:27.251Z,100964.03
2022-11-25T01:06:54.466Z,100965.75
2022-11-25T01:09:21.276Z,100984.28
2022-11-25T01:11:51.491Z,100990.75
2022-11-25T01:14:18.367Z,100995.72
2022-11-25T01:16:45.130Z,100996.81
2022-11-25T01:19:12.666Z,100994.88
2022-11-25T01:21:39.518Z,101009.16
2022-11-25T01:24:06.762Z,101000.75
2022-11-25T01:26:35.178Z,101006.88
2022-11-25T01:29:04.246Z,100997.38
2022-11-25T01:31:34.926Z,101005.78
2022-11-25T01:34:05.801Z,100995.41
2022-11-25T01:36:32.873Z,101003.50
2022-11-25T01:39:00.919Z,101000.44
2022-11-25T01:41:31.775Z,100999.59
2022-11-25T01:44:18.242Z,101000.75
2022-11-25T01:47:07.307Z,101002.72
2022-11-25T01:50:02.733Z,100991.25
2022-11-25T01:52:35.216Z,100996.59
2022-11-25T01:55:22.166Z,100995.47
2022-11-25T01:57:52.542Z,100985.09
2022-11-25T02:00:19.896Z,100995.50
2022-11-25T02:02:49.719Z,100990.47
2022-11-25T02:05:20.862Z,100994.97
2022-11-25T02:07:49.761Z,101000.31
2022-11-25T02:10:21.553Z,101007.03
2022-11-25T02:12:48.965Z,101013.81
2022-11-25T02:15:17.128Z,101021.34
2022-11-25T02:17:45.119Z,101032.28
2022-11-25T02:20:18.059Z,101014.38
2022-11-25T02:23:25.717Z,101032.34
2022-11-25T02:25:53.365Z,101025.31
2022-11-25T02:28:26.458Z,101026.47
2022-11-25T02:30:53.461Z,101028.13
2022-11-25T02:33:21.037Z,101031.50
2022-11-25T02:35:47.673Z,101048.59
2022-11-25T02:38:24.097Z,101033.75
2022-11-25T02:41:01.199Z,101040.19
2022-11-25T02:43:29.645Z,101038.53
2022-11-25T02:45:59.131Z,101046.94
2022-11-25T02:48:52.901Z,101029.28
2022-11-25T02:51:18.511Z,101044.16
2022-11-25T02:53:45.865Z,101033.78
2022-11-25T02:56:14.714Z,101043.88
2022-11-25T02:58:42.453Z,101033.50
2022-11-25T03:01:10.009Z,101030.44
2022-11-25T03:03:37.943Z,101034.59
2022-11-25T03:06:07.355Z,101040.22
2022-11-25T03:08:34.500Z,101029.28
2022-11-25T03:11:01.737Z,101053.09
2022-11-25T03:13:28.723Z,101046.94
2022-11-25T03:15:55.708Z,101053.09
2022-11-25T03:18:22.681Z,101037.69
2022-11-25T03:20:53.911Z,101031.25
2022-11-25T03:23:20.936Z,101031.53
2022-11-25T03:25:47.788Z,101046.94
2022-11-25T03:28:14.683Z,101037.09
2022-11-25T03:30:41.586Z,101048.59
2022-11-25T03:33:08.309Z,101050.84
2022-11-25T03:35:35.295Z,101037.38
2022-11-25T03:38:01.974Z,101053.06
2022-11-25T03:40:28.690Z,101048.81
2022-11-25T03:42:55.499Z,101060.31
2022-11-25T03:45:22.223Z,101060.31
2022-11-25T03:47:49.007Z,101049.66
2022-11-25T03:50:16.607Z,101046.59
2022-11-25T03:52:43.304Z,101051.34
2022-11-25T03:55:13.124Z,101044.63
2022-11-25T03:57:40.448Z,101054.72
2022-11-25T04:00:07.984Z,101058.66
2022-11-25T04:02:34.732Z,101055.28
2022-11-25T04:05:03.476Z,101042.09
2022-11-25T04:07:30.293Z,101049.66
2022-11-25T04:09:57.070Z,101058.13
2022-11-25T04:12:42.314Z,101045.22
2022-11-25T04:15:09.331Z,101063.72
2022-11-25T04:17:36.093Z,101063.16
2022-11-25T04:20:03.450Z,101072.13
2022-11-25T04:22:30.156Z,101072.94
2022-11-25T04:24:56.932Z,101074.34
2022-11-25T04:27:23.782Z,101075.72
2022-11-25T04:29:50.493Z,101067.00
2022-11-25T04:32:17.319Z,101065.31
2022-11-25T04:34:44.172Z,101054.13
2022-11-25T04:37:10.931Z,101067.63
2022-11-25T04:39:37.753Z,101079.94
2022-11-25T04:42:23.391Z,101078.81
2022-11-25T04:45:14.179Z,101073.75
2022-11-25T04:47:37.115Z,101081.34
2022-11-25T04:50:05.336Z,101076.56
2022-11-25T04:52:32.086Z,101085.25
2022-11-25T04:54:58.847Z,101085.75
2022-11-25T04:57:25.787Z,101088.28
2022-11-25T04:59:52.566Z,101084.34
2022-11-25T05:02:21.925Z,101095.88
2022-11-25T05:04:50.525Z,101107.06
2022-11-25T05:07:19.896Z,101107.06
2022-11-25T05:09:47.012Z,101115.75
2022-11-25T05:12:16.561Z,101114.09
2022-11-25T05:14:43.310Z,101124.16
2022-11-25T05:17:15.701Z,101128.38
2022-11-25T05:19:42.924Z,101125.84
2022-11-25T05:22:23.046Z,101133.69
2022-11-25T05:24:49.811Z,101136.47
2022-11-25T05:27:17.079Z,101132.84
2022-11-25T05:29:44.229Z,101140.16
2022-11-25T05:32:11.472Z,101134.25
2022-11-25T05:34:39.177Z,101134.25
2022-11-25T05:37:07.416Z,101141.25
2022-11-25T05:39:34.148Z,101157.19
2022-11-25T05:42:01.231Z,101144.59
2022-11-25T05:44:28.172Z,101146.56
2022-11-25T05:46:54.916Z,101146.56
2022-11-25T05:49:22.068Z,101151.03
2022-11-25T05:51:49.146Z,101169.53
2022-11-25T05:54:15.919Z,101177.91
2022-11-25T05:56:42.672Z,101177.31
2022-11-25T05:59:09.745Z,101191.03
2022-11-25T06:01:36.481Z,101190.13
2022-11-25T06:04:04.935Z,101193.19
2022-11-25T06:06:32.387Z,101205.22
2022-11-25T06:08:59.772Z,101214.72
2022-11-25T06:11:26.582Z,101209.66
2022-11-25T06:13:53.479Z,101220.59
2022-11-25T06:16:22.917Z,101222.88
2022-11-25T06:18:49.872Z,101217.78
2022-11-25T06:21:17.149Z,101239.63
2022-11-25T06:23:45.671Z,101238.72
2022-11-25T06:26:22.080Z,101238.72
2022-11-25T06:28:50.568Z,101245.44
2022-11-25T06:31:20.818Z,101239.31
2022-11-25T06:33:48.292Z,101243.81
2022-11-25T06:36:18.266Z,101235.78
2022-11-25T06:38:47.119Z,101256.03
2022-11-25T06:41:14.128Z,101263.81
2022-11-25T06:43:41.496Z,101272.25
2022-11-25T06:46:14.044Z,101281.22
2022-11-25T06:48:41.182Z,101291.66
2022-11-25T06:51:11.562Z,101290.03
2022-11-25T06:53:39.638Z,101288.59
2022-11-25T06:56:18.679Z,101294.41
2022-11-25T06:58:47.186Z,101306.72
2022-11-25T07:01:25.860Z,101302.00
2022-11-25T07:03:56.668Z,101315.69
2022-11-25T07:06:23.687Z,101322.59
2022-11-25T07:08:51.380Z,101328.66
2022-11-25T07:11:25.854Z,101316.31
2022-11-25T07:13:55.543Z,101314.50
2022-11-25T07:16:22.986Z,101328.94
2022-11-25T07:18:49.940Z,101330.78
2022-11-25T07:21:20.194Z,101325.66
2022-11-25T07:23:47.146Z,101327.75
2022-11-25T07:26:26.034Z,101341.03
2022-11-25T07:28:55.085Z,101341.56
2022-11-25T07:31:31.466Z,101359.13
2022-11-25T07:34:23.584Z,101357.69
2022-11-25T07:36:51.102Z,101341.13
2022-11-25T07:39:22.844Z,101354.25
2022-11-25T07:41:51.128Z,101358.47
2022-11-25T07:44:18.093Z,101361.22
2022-11-25T07:46:47.700Z,101358.75
2022-11-25T07:49:20.917Z,101370.75
2022-11-25T07:51:53.885Z,101379.97
2022-11-25T07:54:21.845Z,101374.06
2022-11-25T07:56:49.885Z,101379.78
2022-11-25T07:59:22.080Z,101394.66
2022-11-25T08:01:54.406Z,101389.06
2022-11-25T08:04:21.814Z,101396.34
2022-11-25T08:06:50.965Z,101402.75
2022-11-25T08:09:21.103Z,101398.75
2022-11-25T08:11:48.737Z,101400.28
2022-11-25T08:14:16.126Z,101415.22
2022-11-25T08:16:43.252Z,101432.44
2022-11-25T08:19:14.471Z,101433.38
2022-11-25T08:21:42.000Z,101430.50
2022-11-25T08:24:14.894Z,101441.41
2022-11-25T08:26:41.623Z,101452.75
2022-11-25T08:29:09.466Z,101446.78
2022-11-25T08:31:38.111Z,101460.56
2022-11-25T08:34:07.409Z,101467.75
2022-11-25T08:36:35.305Z,101467.84
2022-11-25T08:39:22.552Z,101485.84
2022-11-25T08:41:53.083Z,101496.22
2022-11-25T08:44:19.940Z,101506.31
2022-11-25T08:46:46.824Z,101499.53
2022-11-25T08:49:17.497Z,101493.31
2022-11-25T08:51:44.476Z,101496.47
2022-11-25T08:54:11.276Z,101496.22
2022-11-25T08:56:38.080Z,101509.59
2022-11-25T08:59:05.269Z,101495.38
2022-11-25T09:01:32.653Z,101505.50
2022-11-25T09:03:59.965Z,101515.34
2022-11-25T09:06:28.879Z,101510.69
2022-11-25T09:09:01.942Z,101515.59
2022-11-25T09:11:29.410Z,101508.47
2022-11-25T09:13:56.493Z,101511.47
2022-11-25T09:16:25.774Z,101515.03
2022-11-25T09:18:56.131Z,101519.00
2022-11-25T09:21:25.196Z,101521.59
2022-11-25T09:23:54.968Z,101519.88
2022-11-25T09:26:27.004Z,101518.22
2022-11-25T09:28:54.319Z,101514.44
2022-11-25T09:31:22.404Z,101517.13
2022-11-25T09:33:49.293Z,101519.22
2022-11-25T09:36:18.055Z,101517.72
2022-11-25T09:38:45.064Z,101527.13
2022-11-25T09:41:42.153Z,101531.22
2022-11-25T09:45:04.346Z,101533.16
2022-11-25T09:47:52.852Z,101532.88
2022-11-25T09:50:41.496Z,101521.97
2022-11-25T09:53:17.485Z,101539.56
2022-11-25T09:55:47.675Z,101540.00
2022-11-25T09:58:51.111Z,101533.78
2022-11-25T10:01:23.517Z,101542.75
2022-11-25T10:03:58.439Z,101538.66
2022-11-25T10:06:28.577Z,101548.84
2022-11-25T10:09:11.439Z,101547.25
2022-11-25T10:11:50.406Z,101550.72
2022-11-25T10:14:49.043Z,101547.31
2022-11-25T10:17:15.783Z,101551.94
2022-11-25T10:20:01.762Z,101557.53
2022-11-25T10:22:32.866Z,101549.38
2022-11-25T10:25:03.208Z,101548.59
2022-11-25T10:27:41.867Z,101548.16
2022-11-25T10:30:49.031Z,101554.00
2022-11-25T10:33:32.971Z,101544.88
2022-11-25T10:36:06.946Z,101556.63
2022-11-25T10:38:42.748Z,101551.09
2022-11-25T10:41:15.987Z,101535.84
2022-11-25T10:43:45.867Z,101546.13
2022-11-25T10:47:11.819Z,101538.09
2022-11-25T10:50:01.157Z,101550.06
2022-11-25T10:52:31.187Z,101541.81
2022-11-25T10:55:09.834Z,101534.69
2022-11-25T10:57:36.969Z,101540.94
2022-11-25T11:00:06.173Z,101534.53
2022-11-25T11:02:36.002Z,101541.31
2022-11-25T11:05:08.532Z,101538.22
2022-11-25T11:07:39.125Z,101541.69
2022-11-25T11:10:14.804Z,101546.47
2022-11-25T11:13:04.085Z,101541.50
2022-11-25T11:15:30.648Z,101543.66
2022-11-25T11:18:00.154Z,101536.13
2022-11-25T11:20:31.831Z,101525.56
2022-11-25T11:23:10.441Z,101538.56
2022-11-25T11:25:39.532Z,101532.22
2022-11-25T11:28:33.469Z,101529.22
2022-11-25T11:31:10.182Z,101519.44
2022-11-25T11:33:49.005Z,101519.09
2022-11-25T11:36:21.885Z,101520.81
2022-11-25T11:38:57.082Z,101520.59
2022-11-25T11:41:50.322Z,101514.53
2022-11-25T11:44:40.587Z,101517.78
2022-11-25T11:47:44.137Z,101507.91
2022-11-25T11:50:30.083Z,101510.63
2022-11-25T11:53:11.785Z,101504.13
2022-11-25T11:55:41.589Z,101493.69
2022-11-25T11:58:45.717Z,101487.97
2022-11-25T12:01:22.512Z,101488.09
2022-11-25T12:04:00.368Z,101477.97
2022-11-25T12:06:31.893Z,101478.00
2022-11-25T12:09:05.205Z,101474.63
2022-11-25T12:11:38.976Z,101470.28
2022-11-25T12:14:36.784Z,101475.59
2022-11-25T12:17:13.816Z,101473.63
2022-11-25T12:20:07.745Z,101464.69
2022-11-25T12:22:59.002Z,101462.28
2022-11-25T12:25:37.714Z,101460.56
2022-11-25T12:28:21.403Z,101464.09
2022-11-25T12:30:51.105Z,101462.31
2022-11-25T12:33:45.635Z,101450.94
2022-11-25T12:36:18.042Z,101441.94
2022-11-25T12:39:02.349Z,101455.28
2022-11-25T12:41:41.443Z,101444.50
2022-11-25T12:44:20.253Z,101444.66
2022-11-25T12:46:50.033Z,101438.78
2022-11-25T12:49:29.090Z,101439.31
2022-11-25T12:51:55.701Z,101434.91
2022-11-25T12:54:37.861Z,101428.00
2022-11-25T12:57:07.714Z,101415.09
2022-11-25T13:00:42.958Z,101402.25
2022-11-25T13:03:21.102Z,101395.72
2022-11-25T13:06:24.485Z,101390.94
2022-11-25T13:09:01.402Z,101386.44
2022-11-25T13:11:47.610Z,101374.63
2022-11-25T13:14:52.115Z,101384.66
2022-11-25T13:17:22.412Z,101361.78
2022-11-25T13:19:49.559Z,101371.75
2022-11-25T13:22:23.700Z,101380.84
2022-11-25T13:24:50.866Z,101369.13
2022-11-25T13:27:40.581Z,101353.53
2022-11-25T13:30:33.541Z,101366.50
2022-11-25T13:33:15.481Z,101368.78
2022-11-25T13:35:46.236Z,101360.09
2022-11-25T13:38:31.133Z,101363.28
2022-11-25T13:41:04.142Z,101361.25
2022-11-25T13:43:31.035Z,101346.13
2022-11-25T13:45:58.012Z,101349.97
2022-11-25T13:48:29.023Z,101340.13
2022-11-25T13:51:17.515Z,101349.59
2022-11-25T13:53:55.387Z,101339.38
2022-11-25T13:56:28.014Z,101336.22
2022-11-25T13:59:16.731Z,101345.84
2022-11-25T14:01:46.842Z,101347.91
2022-11-25T14:04:15.677Z,101343.31
2022-11-25T14:06:57.681Z,101341.50
2022-11-25T14:09:55.941Z,101332.13
2022-11-25T14:12:34.114Z,101324.41
2022-11-25T14:15:22.393Z,101337.75
2022-11-25T14:18:31.451Z,101327.47
2022-11-25T14:21:20.888Z,101325.63
2022-11-25T14:24:03.965Z,101320.50
2022-11-25T14:26:49.224Z,101323.28
2022-11-25T14:29:25.875Z,101318.53
2022-11-25T14:31:57.280Z,101312.44
2022-11-25T14:34:41.814Z,101316.09
2022-11-25T14:37:16.547Z,101322.03
2022-11-25T14:39:53.012Z,101326.25
2022-11-25T14:42:22.663Z,101308.78
2022-11-25T14:44:51.772Z,101321.81
2022-11-25T14:47:24.130Z,101324.50
2022-11-25T14:50:33.773Z,101317.47
2022-11-25T14:52:47.883Z,101310.78
2022-11-25T14:55:24.130Z,101313.34
2022-11-25T14:57:52.339Z,101321.97
2022-11-25T15:00:19.315Z,101324.72
2022-11-25T15:03:18.781Z,101307.97
2022-11-25T15:05:54.920Z,101304.50
2022-11-25T15:08:22.374Z,101312.81
2022-11-25T15:11:02.910Z,101307.38
2022-11-25T15:13:34.474Z,101309.81
2022-11-25T15:16:16.183Z,101311.22
2022-11-25T15:18:48.999Z,101313.13
2022-11-25T15:21:19.497Z,101302.44
2022-11-25T15:23:46.398Z,101297.25
2022-11-25T15:26:27.958Z,101305.94
2022-11-25T15:28:57.336Z,101309.31
2022-11-25T15:31:31.511Z,101308.88
2022-11-25T15:34:02.482Z,101309.31
2022-11-25T15:36:29.651Z,101299.25
2022-11-25T15:39:14.516Z,101296.53
2022-11-25T15:41:44.264Z,101300.06
2022-11-25T15:44:18.838Z,101293.97
2022-11-25T15:47:11.570Z,101306.56
2022-11-25T15:49:38.583Z,101323.72
2022-11-25T15:52:13.390Z,101309.69
2022-11-25T15:54:44.191Z,101311.81
2022-11-25T15:57:27.016Z,101318.28
2022-11-25T15:59:53.735Z,101333.19
2022-11-25T16:02:34.593Z,101336.94
2022-11-25T16:05:13.588Z,101333.56
2022-11-25T16:07:52.474Z,101340.34
2022-11-25T16:10:22.137Z,101343.41
2022-11-25T16:13:23.442Z,101349.50
2022-11-25T16:16:24.317Z,101353.56
2022-11-25T16:19:03.501Z,101353.56
2022-11-25T16:21:38.983Z,101348.13
2022-11-25T16:24:05.828Z,101350.03
2022-11-25T16:26:35.139Z,101361.31
2022-11-25T16:29:08.784Z,101355.44
2022-11-25T16:31:35.546Z,101363.09
2022-11-25T16:34:14.615Z,101360.31
2022-11-25T16:36:42.479Z,101364.84
2022-11-25T16:39:09.728Z,101364.38
2022-11-25T16:41:36.875Z,101380.44
2022-11-25T16:44:21.354Z,101377.47
2022-11-25T16:46:48.335Z,101384.41
2022-11-25T16:49:17.348Z,101381.91
2022-11-25T16:51:44.667Z,101386.75
2022-11-25T16:54:12.681Z,101396.41
2022-11-25T16:56:42.049Z,101395.31
2022-11-25T16:59:22.331Z,101391.91
2022-11-25T17:01:50.201Z,101393.03
2022-11-25T17:04:17.727Z,101402.97
2022-11-25T17:06:54.028Z,101398.00
2022-11-25T17:09:32.462Z,101402.81
2022-11-25T17:11:59.412Z,101401.50
2022-11-25T17:14:34.743Z,101410.88
2022-11-25T17:17:05.801Z,101402.50
2022-11-25T17:19:32.768Z,101413.00
2022-11-25T17:21:59.618Z,101397.31
2022-11-25T17:24:27.247Z,101436.16
2022-11-25T17:27:05.725Z,101432.00
2022-11-25T17:29:37.298Z,101440.47
2022-11-25T17:32:05.264Z,101440.25
2022-11-25T17:34:36.413Z,101438.63
2022-11-25T17:37:25.848Z,101437.88
2022-11-25T17:39:53.889Z,101450.25
2022-11-25T17:42:28.549Z,101469.13
2022-11-25T17:44:55.531Z,101469.41
2022-11-25T17:47:23.052Z,101468.63
2022-11-25T17:49:49.947Z,101459.06
2022-11-25T17:52:16.861Z,101470.06
2022-11-25T17:54:43.670Z,101479.06
2022-11-25T17:57:17.858Z,101490.84
2022-11-25T17:59:44.780Z,101486.09
2022-11-25T18:02:18.792Z,101473.44
2022-11-25T18:04:45.732Z,101481.31
2022-11-25T18:07:12.468Z,101490.59
2022-11-25T18:09:39.483Z,101493.13
2022-11-25T18:12:20.135Z,101487.78
2022-11-25T18:14:46.984Z,101502.41
2022-11-25T18:17:16.894Z,101503.78
2022-11-25T18:19:44.176Z,101500.72
2022-11-25T18:22:13.641Z,101510.25
2022-11-25T18:24:41.049Z,101520.13
2022-11-25T18:27:13.492Z,101513.66
2022-11-25T18:29:40.230Z,101522.06
2022-11-25T18:32:09.912Z,101515.88
2022-11-25T18:34:37.040Z,101532.47
2022-11-25T18:37:04.564Z,101530.50
2022-11-25T18:39:31.394Z,101523.78
2022-11-25T18:42:00.050Z,101518.16
2022-11-25T18:44:31.588Z,101531.34
2022-11-25T18:46:58.322Z,101527.72
2022-11-25T18:49:25.048Z,101530.53
2022-11-25T18:51:51.886Z,101546.53
2022-11-25T18:54:18.604Z,101540.63
2022-11-25T18:56:50.231Z,101544.56
2022-11-25T18:59:21.156Z,101557.47
2022-11-25T19:01:50.032Z,101558.03
2022-11-25T19:04:17.560Z,101556.63
2022-11-25T19:06:44.734Z,101554.63
2022-11-25T19:09:12.094Z,101555.78
2022-11-25T19:11:42.758Z,101552.72
2022-11-25T19:14:33.350Z,101555.75
2022-11-25T19:17:07.521Z,101559.09
2022-11-25T19:19:35.647Z,101550.41
2022-11-25T19:22:02.694Z,101551.53
2022-11-25T19:24:29.573Z,101538.34
2022-11-25T19:26:57.629Z,101547.91
2022-11-25T19:29:41.843Z,101555.75
2022-11-25T19:32:23.608Z,101554.59
2022-11-25T19:34:55.161Z,101558.84
2022-11-25T19:37:22.821Z,101553.22
2022-11-25T19:39:56.421Z,101555.19
2022-11-25T19:42:25.520Z,101561.63
2022-11-25T19:44:53.114Z,101568.13
2022-11-25T19:47:21.582Z,101579.34
2022-11-25T19:49:50.791Z,101573.72
2022-11-25T19:52:23.283Z,101579.91
2022-11-25T19:54:51.156Z,101583.00
2022-11-25T19:57:20.653Z,101581.06
2022-11-25T19:59:47.975Z,101587.22
2022-11-25T20:02:26.269Z,101578.22
2022-11-25T20:04:55.951Z,101576.00
2022-11-25T20:07:23.137Z,101575.13
2022-11-25T20:09:51.666Z,101578.50
2022-11-25T20:12:28.655Z,101575.97
2022-11-25T20:14:55.407Z,101573.41
2022-11-25T20:17:34.292Z,101577.94
2022-11-25T20:20:16.867Z,101578.75
2022-11-25T20:23:06.205Z,101564.72
2022-11-25T20:25:37.039Z,101582.69
2022-11-25T20:28:03.789Z,101570.91
2022-11-25T20:30:30.626Z,101550.13
2022-11-25T20:32:57.368Z,101565.56
2022-11-25T20:35:25.979Z,101562.47
2022-11-25T20:37:58.176Z,101574.84
2022-11-25T20:40:42.415Z,101551.50
2022-11-25T20:43:38.912Z,101559.66
2022-11-25T20:46:07.225Z,101556.88
2022-11-25T20:48:37.528Z,101570.63
2022-11-25T20:51:12.907Z,101575.38
2022-11-25T20:53:43.658Z,101570.28
2022-11-25T20:56:14.557Z,101569.16
2022-11-25T20:58:41.339Z,101550.31
2022-11-25T21:01:08.209Z,101573.06
2022-11-25T21:03:35.116Z,101569.69
2022-11-25T21:06:03.152Z,101583.66
2022-11-25T21:08:31.023Z,101574.97
2022-11-25T21:10:59.343Z,101542.59
2022-11-25T21:13:28.873Z,101568.72
2022-11-25T21:15:57.780Z,101575.19
2022-11-25T21:18:25.526Z,101574.66
2022-11-25T21:20:54.586Z,101564.50
2022-11-25T21:23:22.780Z,101579.59
2022-11-25T21:25:50.700Z,101570.06
2022-11-25T21:28:20.622Z,101560.50
2022-11-25T21:30:47.852Z,101573.34
2022-11-25T21:33:15.937Z,101573.91
2022-11-25T21:35:46.159Z,101578.34
2022-11-25T21:38:18.019Z,101571.91
2022-11-25T21:40:47.575Z,101578.19
2022-11-25T21:43:22.390Z,101582.13
2022-11-25T21:45:52.729Z,101587.47
2022-11-25T21:48:24.659Z,101587.16
2022-11-25T21:50:51.983Z,101587.09
2022-11-25T21:53:19.074Z,101579.19
2022-11-25T21:55:46.610Z,101581.28
2022-11-25T21:58:19.866Z,101583.81
2022-11-25T22:00:58.276Z,101586.53
2022-11-25T22:03:26.890Z,101586.81
2022-11-25T22:05:53.580Z,101593.75
2022-11-25T22:08:20.400Z,101587.34
2022-11-25T22:10:50.480Z,101575.56
2022-11-25T22:13:23.947Z,101586.72
2022-11-25T22:15:55.697Z,101594.59
2022-11-25T22:18:33.009Z,101581.06
2022-11-25T22:21:00.180Z,101583.28
2022-11-25T22:23:27.844Z,101593.34
2022-11-25T22:25:55.207Z,101587.09
2022-11-25T22:28:24.627Z,101579.03
2022-11-25T22:30:53.983Z,101585.66
2022-11-25T22:33:24.678Z,101587.06
2022-11-25T22:35:51.435Z,101591.69
2022-11-25T22:38:18.890Z,101604.75
2022-11-25T22:40:51.529Z,101587.00
2022-11-25T22:43:22.055Z,101585.84
2022-11-25T22:45:49.633Z,101591.44
2022-11-25T22:48:24.175Z,101598.72
2022-11-25T22:50:50.891Z,101586.38
2022-11-25T22:53:18.990Z,101588.09
2022-11-25T22:55:46.527Z,101573.56
2022-11-25T22:58:14.703Z,101574.66
2022-11-25T23:00:45.389Z,101572.88
2022-11-25T23:03:19.039Z,101563.91
2022-11-25T23:05:46.436Z,101565.91
2022-11-25T23:08:15.966Z,101571.09
2022-11-25T23:10:43.534Z,101572.25
2022-11-25T23:13:10.844Z,101569.75
2022-11-25T23:15:38.402Z,101566.34
2022-11-25T23:18:13.967Z,101566.88
2022-11-25T23:20:40.837Z,101574.03
2022-11-25T23:23:27.242Z,101565.59
2022-11-25T23:25:54.967Z,101552.41
2022-11-25T23:28:22.278Z,101567.03
2022-11-25T23:30:54.604Z,101554.03
2022-11-25T23:33:32.640Z,101564.16
2022-11-25T23:36:04.747Z,101564.44
2022-11-25T23:38:38.594Z,101557.13
2022-11-25T23:41:05.547Z,101563.31
2022-11-25T23:43:32.239Z,101563.81
2022-11-25T23:45:59.296Z,101560.09
2022-11-25T23:48:30.735Z,101550.97
2022-11-25T23:50:59.340Z,101556.00
2022-11-25T23:53:32.248Z,101553.63
2022-11-25T23:55:59.467Z,101557.63
2022-11-25T23:58:26.281Z,101550.13
